sensor_id;sensor_type;location;lat;lon;timestamp;P1;durP1;ratioP1;P2;durP2;ratioP2
35646;SDS011;28680;45.642;13.756;2023-03-03T00:00:41;9.35;;;4.32;;
35646;SDS011;28680;45.642;13.756;2023-03-03T00:03:25;9.77;;;4.65;;
35646;SDS011;28680;45.642;13.756;2023-03-03T00:06:02;9.38;;;4.38;;
35646;SDS011;28680;45.642;13.756;2023-03-03T00:08:56;9.95;;;4.53;;
35646;SDS011;28680;45.642;13.756;2023-03-03T00:14:56;7.90;;;4.60;;
35646;SDS011;28680;45.642;13.756;2023-03-03T00:17:41;9.05;;;4.45;;
35646;SDS011;28680;45.642;13.756;2023-03-03T00:23:45;8.77;;;4.80;;
35646;SDS011;28680;45.642;13.756;2023-03-03T00:26:40;8.55;;;4.30;;
35646;SDS011;28680;45.642;13.756;2023-03-03T00:35:47;8.52;;;3.78;;
35646;SDS011;28680;45.642;13.756;2023-03-03T00:38:11;5.15;;;3.30;;
35646;SDS011;28680;45.642;13.756;2023-03-03T00:40:43;7.60;;;3.63;;
35646;SDS011;28680;45.642;13.756;2023-03-03T00:43:16;9.68;;;4.13;;
35646;SDS011;28680;45.642;13.756;2023-03-03T00:45:51;7.32;;;3.30;;
35646;SDS011;28680;45.642;13.756;2023-03-03T00:48:40;6.18;;;3.20;;
35646;SDS011;28680;45.642;13.756;2023-03-03T00:51:24;6.55;;;4.35;;
35646;SDS011;28680;45.642;13.756;2023-03-03T00:53:52;8.15;;;4.10;;
35646;SDS011;28680;45.642;13.756;2023-03-03T00:56:18;7.07;;;4.28;;
35646;SDS011;28680;45.642;13.756;2023-03-03T00:58:44;7.22;;;3.90;;
35646;SDS011;28680;45.642;13.756;2023-03-03T01:01:12;8.98;;;3.67;;
35646;SDS011;28680;45.642;13.756;2023-03-03T01:03:39;6.78;;;4.28;;
35646;SDS011;28680;45.642;13.756;2023-03-03T01:06:05;7.68;;;4.10;;
35646;SDS011;28680;45.642;13.756;2023-03-03T01:08:31;7.60;;;3.78;;
35646;SDS011;28680;45.642;13.756;2023-03-03T01:10:58;6.53;;;3.50;;
35646;SDS011;28680;45.642;13.756;2023-03-03T01:13:33;7.63;;;3.30;;
35646;SDS011;28680;45.642;13.756;2023-03-03T01:16:01;7.90;;;3.60;;
35646;SDS011;28680;45.642;13.756;2023-03-03T01:18:28;5.18;;;3.28;;
35646;SDS011;28680;45.642;13.756;2023-03-03T01:20:54;6.55;;;3.63;;
35646;SDS011;28680;45.642;13.756;2023-03-03T01:23:20;6.95;;;3.65;;
35646;SDS011;28680;45.642;13.756;2023-03-03T01:25:46;5.55;;;3.20;;
35646;SDS011;28680;45.642;13.756;2023-03-03T01:28:12;6.18;;;3.25;;
35646;SDS011;28680;45.642;13.756;2023-03-03T01:30:38;7.07;;;3.72;;
35646;SDS011;28680;45.642;13.756;2023-03-03T01:33:04;6.63;;;3.45;;
35646;SDS011;28680;45.642;13.756;2023-03-03T01:35:30;7.05;;;3.85;;
35646;SDS011;28680;45.642;13.756;2023-03-03T01:37:56;6.03;;;3.72;;
35646;SDS011;28680;45.642;13.756;2023-03-03T01:40:24;7.47;;;3.83;;
35646;SDS011;28680;45.642;13.756;2023-03-03T01:42:53;6.47;;;3.40;;
35646;SDS011;28680;45.642;13.756;2023-03-03T01:45:23;6.95;;;3.90;;
35646;SDS011;28680;45.642;13.756;2023-03-03T01:54:00;10.32;;;5.25;;
35646;SDS011;28680;45.642;13.756;2023-03-03T01:56:30;11.63;;;5.30;;
35646;SDS011;28680;45.642;13.756;2023-03-03T01:59:04;11.68;;;5.53;;
35646;SDS011;28680;45.642;13.756;2023-03-03T02:01:38;9.23;;;5.28;;
35646;SDS011;28680;45.642;13.756;2023-03-03T02:04:06;8.48;;;4.82;;
35646;SDS011;28680;45.642;13.756;2023-03-03T02:06:34;9.50;;;5.38;;
35646;SDS011;28680;45.642;13.756;2023-03-03T02:12:16;8.55;;;4.50;;
35646;SDS011;28680;45.642;13.756;2023-03-03T02:14:44;9.32;;;5.20;;
35646;SDS011;28680;45.642;13.756;2023-03-03T02:17:10;8.10;;;4.35;;
35646;SDS011;28680;45.642;13.756;2023-03-03T02:19:54;9.27;;;4.53;;
35646;SDS011;28680;45.642;13.756;2023-03-03T02:22:50;9.82;;;5.05;;
35646;SDS011;28680;45.642;13.756;2023-03-03T02:28:12;10.48;;;4.72;;
35646;SDS011;28680;45.642;13.756;2023-03-03T02:30:38;11.90;;;4.82;;
35646;SDS011;28680;45.642;13.756;2023-03-03T02:33:05;8.02;;;4.63;;
35646;SDS011;28680;45.642;13.756;2023-03-03T02:35:36;7.80;;;4.15;;
35646;SDS011;28680;45.642;13.756;2023-03-03T02:38:47;7.88;;;4.18;;
35646;SDS011;28680;45.642;13.756;2023-03-03T02:43:30;8.55;;;4.35;;
35646;SDS011;28680;45.642;13.756;2023-03-03T02:46:19;9.48;;;4.60;;
35646;SDS011;28680;45.642;13.756;2023-03-03T02:48:45;9.68;;;4.60;;
35646;SDS011;28680;45.642;13.756;2023-03-03T02:51:11;8.05;;;4.15;;
35646;SDS011;28680;45.642;13.756;2023-03-03T02:53:37;7.57;;;4.30;;
35646;SDS011;28680;45.642;13.756;2023-03-03T02:56:03;7.30;;;4.07;;
35646;SDS011;28680;45.642;13.756;2023-03-03T02:58:29;8.50;;;4.63;;
35646;SDS011;28680;45.642;13.756;2023-03-03T03:00:55;10.05;;;4.70;;
35646;SDS011;28680;45.642;13.756;2023-03-03T03:03:21;9.75;;;4.78;;
35646;SDS011;28680;45.642;13.756;2023-03-03T03:05:47;10.88;;;4.40;;
35646;SDS011;28680;45.642;13.756;2023-03-03T03:08:13;11.10;;;5.07;;
35646;SDS011;28680;45.642;13.756;2023-03-03T03:10:39;8.38;;;4.88;;
35646;SDS011;28680;45.642;13.756;2023-03-03T03:13:05;9.60;;;4.95;;
35646;SDS011;28680;45.642;13.756;2023-03-03T03:15:30;11.68;;;5.10;;
35646;SDS011;28680;45.642;13.756;2023-03-03T03:17:56;9.60;;;4.78;;
35646;SDS011;28680;45.642;13.756;2023-03-03T03:20:22;9.05;;;4.72;;
35646;SDS011;28680;45.642;13.756;2023-03-03T03:22:48;11.88;;;5.05;;
35646;SDS011;28680;45.642;13.756;2023-03-03T03:25:14;11.60;;;5.45;;
35646;SDS011;28680;45.642;13.756;2023-03-03T03:27:39;13.43;;;5.70;;
35646;SDS011;28680;45.642;13.756;2023-03-03T03:30:05;9.23;;;4.80;;
35646;SDS011;28680;45.642;13.756;2023-03-03T03:32:32;10.52;;;4.97;;
35646;SDS011;28680;45.642;13.756;2023-03-03T03:34:58;9.15;;;4.50;;
35646;SDS011;28680;45.642;13.756;2023-03-03T03:37:24;8.77;;;4.63;;
35646;SDS011;28680;45.642;13.756;2023-03-03T03:39:50;11.23;;;5.30;;
35646;SDS011;28680;45.642;13.756;2023-03-03T03:42:16;13.60;;;5.47;;
35646;SDS011;28680;45.642;13.756;2023-03-03T03:44:41;8.88;;;4.63;;
35646;SDS011;28680;45.642;13.756;2023-03-03T03:47:07;9.25;;;4.35;;
35646;SDS011;28680;45.642;13.756;2023-03-03T03:49:33;9.57;;;4.78;;
35646;SDS011;28680;45.642;13.756;2023-03-03T03:51:59;10.15;;;4.68;;
35646;SDS011;28680;45.642;13.756;2023-03-03T03:54:26;9.68;;;4.72;;
35646;SDS011;28680;45.642;13.756;2023-03-03T03:56:52;10.07;;;4.45;;
35646;SDS011;28680;45.642;13.756;2023-03-03T03:59:18;8.18;;;4.45;;
35646;SDS011;28680;45.642;13.756;2023-03-03T04:01:45;7.80;;;4.80;;
35646;SDS011;28680;45.642;13.756;2023-03-03T04:04:12;9.27;;;4.90;;
35646;SDS011;28680;45.642;13.756;2023-03-03T04:06:38;9.02;;;4.70;;
35646;SDS011;28680;45.642;13.756;2023-03-03T04:09:04;8.23;;;4.22;;
35646;SDS011;28680;45.642;13.756;2023-03-03T04:11:30;10.13;;;4.35;;
35646;SDS011;28680;45.642;13.756;2023-03-03T04:13:56;11.40;;;5.22;;
35646;SDS011;28680;45.642;13.756;2023-03-03T04:16:22;10.00;;;4.68;;
35646;SDS011;28680;45.642;13.756;2023-03-03T04:18:51;8.20;;;4.25;;
35646;SDS011;28680;45.642;13.756;2023-03-03T04:21:16;9.65;;;4.72;;
35646;SDS011;28680;45.642;13.756;2023-03-03T04:23:42;9.05;;;4.47;;
35646;SDS011;28680;45.642;13.756;2023-03-03T04:26:08;7.97;;;4.30;;
35646;SDS011;28680;45.642;13.756;2023-03-03T04:28:35;8.55;;;4.20;;
35646;SDS011;28680;45.642;13.756;2023-03-03T04:31:01;8.90;;;4.50;;
35646;SDS011;28680;45.642;13.756;2023-03-03T04:33:27;13.45;;;5.30;;
35646;SDS011;28680;45.642;13.756;2023-03-03T04:35:53;6.68;;;3.90;;
35646;SDS011;28680;45.642;13.756;2023-03-03T04:38:18;6.50;;;3.28;;
35646;SDS011;28680;45.642;13.756;2023-03-03T04:40:45;13.13;;;4.20;;
35646;SDS011;28680;45.642;13.756;2023-03-03T04:43:11;8.35;;;3.53;;
35646;SDS011;28680;45.642;13.756;2023-03-03T04:45:37;6.82;;;3.75;;
35646;SDS011;28680;45.642;13.756;2023-03-03T04:48:03;8.75;;;4.03;;
35646;SDS011;28680;45.642;13.756;2023-03-03T04:50:29;5.22;;;3.03;;
35646;SDS011;28680;45.642;13.756;2023-03-03T04:52:55;5.43;;;3.25;;
35646;SDS011;28680;45.642;13.756;2023-03-03T04:55:21;6.03;;;3.30;;
35646;SDS011;28680;45.642;13.756;2023-03-03T04:57:47;7.22;;;3.33;;
35646;SDS011;28680;45.642;13.756;2023-03-03T05:00:15;5.93;;;3.03;;
35646;SDS011;28680;45.642;13.756;2023-03-03T05:05:41;4.30;;;2.70;;
35646;SDS011;28680;45.642;13.756;2023-03-03T05:08:07;7.13;;;3.60;;
35646;SDS011;28680;45.642;13.756;2023-03-03T05:10:32;6.45;;;3.13;;
35646;SDS011;28680;45.642;13.756;2023-03-03T05:12:58;5.68;;;3.08;;
35646;SDS011;28680;45.642;13.756;2023-03-03T05:15:24;6.95;;;3.35;;
35646;SDS011;28680;45.642;13.756;2023-03-03T05:17:50;6.20;;;3.25;;
35646;SDS011;28680;45.642;13.756;2023-03-03T05:20:38;5.75;;;3.05;;
35646;SDS011;28680;45.642;13.756;2023-03-03T05:23:29;7.50;;;3.38;;
35646;SDS011;28680;45.642;13.756;2023-03-03T05:25:55;7.30;;;3.30;;
35646;SDS011;28680;45.642;13.756;2023-03-03T05:28:51;5.25;;;3.42;;
35646;SDS011;28680;45.642;13.756;2023-03-03T05:31:17;7.75;;;3.85;;
35646;SDS011;28680;45.642;13.756;2023-03-03T05:33:52;6.80;;;3.53;;
35646;SDS011;28680;45.642;13.756;2023-03-03T05:39:19;7.35;;;3.50;;
35646;SDS011;28680;45.642;13.756;2023-03-03T05:41:54;6.20;;;3.55;;
35646;SDS011;28680;45.642;13.756;2023-03-03T05:48:17;7.47;;;3.38;;
35646;SDS011;28680;45.642;13.756;2023-03-03T05:51:06;7.85;;;3.72;;
35646;SDS011;28680;45.642;13.756;2023-03-03T05:53:32;9.98;;;3.40;;
35646;SDS011;28680;45.642;13.756;2023-03-03T05:55:58;7.00;;;4.22;;
35646;SDS011;28680;45.642;13.756;2023-03-03T05:58:23;56.42;;;6.97;;
35646;SDS011;28680;45.642;13.756;2023-03-03T06:00:50;56.22;;;10.00;;
35646;SDS011;28680;45.642;13.756;2023-03-03T06:03:16;12.32;;;4.70;;
35646;SDS011;28680;45.642;13.756;2023-03-03T06:05:42;11.32;;;4.72;;
35646;SDS011;28680;45.642;13.756;2023-03-03T06:08:07;14.57;;;4.32;;
35646;SDS011;28680;45.642;13.756;2023-03-03T06:10:34;7.70;;;3.92;;
35646;SDS011;28680;45.642;13.756;2023-03-03T06:12:59;6.93;;;3.97;;
35646;SDS011;28680;45.642;13.756;2023-03-03T06:15:25;6.88;;;4.05;;
35646;SDS011;28680;45.642;13.756;2023-03-03T06:17:51;6.70;;;3.92;;
35646;SDS011;28680;45.642;13.756;2023-03-03T06:20:17;7.07;;;4.15;;
35646;SDS011;28680;45.642;13.756;2023-03-03T06:22:43;6.80;;;3.88;;
35646;SDS011;28680;45.642;13.756;2023-03-03T06:25:12;8.20;;;4.20;;
35646;SDS011;28680;45.642;13.756;2023-03-03T06:27:39;7.72;;;4.25;;
35646;SDS011;28680;45.642;13.756;2023-03-03T06:30:05;6.88;;;3.92;;
35646;SDS011;28680;45.642;13.756;2023-03-03T06:32:31;7.43;;;4.22;;
35646;SDS011;28680;45.642;13.756;2023-03-03T06:34:57;8.77;;;4.70;;
35646;SDS011;28680;45.642;13.756;2023-03-03T06:37:23;6.57;;;4.28;;
35646;SDS011;28680;45.642;13.756;2023-03-03T06:39:49;7.18;;;4.20;;
35646;SDS011;28680;45.642;13.756;2023-03-03T06:42:17;7.97;;;4.22;;
35646;SDS011;28680;45.642;13.756;2023-03-03T06:45:07;6.97;;;4.03;;
35646;SDS011;28680;45.642;13.756;2023-03-03T06:47:33;6.75;;;3.92;;
35646;SDS011;28680;45.642;13.756;2023-03-03T06:49:59;5.80;;;3.90;;
35646;SDS011;28680;45.642;13.756;2023-03-03T06:52:28;7.30;;;3.90;;
35646;SDS011;28680;45.642;13.756;2023-03-03T06:54:54;7.20;;;3.70;;
35646;SDS011;28680;45.642;13.756;2023-03-03T07:02:56;10.13;;;4.15;;
35646;SDS011;28680;45.642;13.756;2023-03-03T07:05:32;6.95;;;3.90;;
35646;SDS011;28680;45.642;13.756;2023-03-03T07:07:58;6.97;;;3.65;;
35646;SDS011;28680;45.642;13.756;2023-03-03T07:10:27;5.97;;;3.45;;
35646;SDS011;28680;45.642;13.756;2023-03-03T07:12:56;7.38;;;4.15;;
35646;SDS011;28680;45.642;13.756;2023-03-03T07:15:37;8.10;;;3.75;;
35646;SDS011;28680;45.642;13.756;2023-03-03T07:18:20;6.53;;;3.47;;
35646;SDS011;28680;45.642;13.756;2023-03-03T07:21:36;7.00;;;3.95;;
35646;SDS011;28680;45.642;13.756;2023-03-03T07:27:05;6.07;;;2.92;;
35646;SDS011;28680;45.642;13.756;2023-03-03T07:29:53;7.28;;;3.33;;
35646;SDS011;28680;45.642;13.756;2023-03-03T07:32:44;6.15;;;2.88;;
35646;SDS011;28680;45.642;13.756;2023-03-03T07:40:54;4.38;;;2.85;;
35646;SDS011;28680;45.642;13.756;2023-03-03T07:46:26;5.40;;;2.65;;
35646;SDS011;28680;45.642;13.756;2023-03-03T07:49:51;5.10;;;2.85;;
35646;SDS011;28680;45.642;13.756;2023-03-03T07:52:24;5.43;;;2.72;;
35646;SDS011;28680;45.642;13.756;2023-03-03T07:55:18;6.07;;;1.95;;
35646;SDS011;28680;45.642;13.756;2023-03-03T07:57:55;3.58;;;2.13;;
35646;SDS011;28680;45.642;13.756;2023-03-03T08:03:07;4.05;;;2.20;;
35646;SDS011;28680;45.642;13.756;2023-03-03T08:05:45;6.07;;;3.30;;
35646;SDS011;28680;45.642;13.756;2023-03-03T08:08:32;5.55;;;3.03;;
35646;SDS011;28680;45.642;13.756;2023-03-03T08:11:01;4.28;;;2.65;;
35646;SDS011;28680;45.642;13.756;2023-03-03T08:18:44;5.47;;;3.13;;
35646;SDS011;28680;45.642;13.756;2023-03-03T08:21:25;6.40;;;3.60;;
35646;SDS011;28680;45.642;13.756;2023-03-03T08:23:53;5.30;;;3.10;;
35646;SDS011;28680;45.642;13.756;2023-03-03T08:26:25;6.65;;;3.20;;
35646;SDS011;28680;45.642;13.756;2023-03-03T08:29:25;7.35;;;3.63;;
35646;SDS011;28680;45.642;13.756;2023-03-03T08:35:38;6.63;;;3.97;;
35646;SDS011;28680;45.642;13.756;2023-03-03T08:38:05;6.22;;;3.10;;
35646;SDS011;28680;45.642;13.756;2023-03-03T08:40:32;7.13;;;2.88;;
35646;SDS011;28680;45.642;13.756;2023-03-03T08:42:59;3.85;;;2.67;;
35646;SDS011;28680;45.642;13.756;2023-03-03T08:45:26;4.93;;;2.22;;
35646;SDS011;28680;45.642;13.756;2023-03-03T08:47:52;3.17;;;1.95;;
35646;SDS011;28680;45.642;13.756;2023-03-03T08:50:18;3.90;;;1.83;;
35646;SDS011;28680;45.642;13.756;2023-03-03T08:52:44;4.13;;;2.20;;
35646;SDS011;28680;45.642;13.756;2023-03-03T08:55:10;2.90;;;2.17;;
35646;SDS011;28680;45.642;13.756;2023-03-03T08:57:37;4.38;;;2.42;;
35646;SDS011;28680;45.642;13.756;2023-03-03T09:00:07;4.07;;;2.20;;
35646;SDS011;28680;45.642;13.756;2023-03-03T09:02:41;4.07;;;2.58;;
35646;SDS011;28680;45.642;13.756;2023-03-03T09:05:07;5.93;;;2.30;;
35646;SDS011;28680;45.642;13.756;2023-03-03T09:07:34;3.10;;;2.08;;
35646;SDS011;28680;45.642;13.756;2023-03-03T09:10:00;5.95;;;2.50;;
35646;SDS011;28680;45.642;13.756;2023-03-03T09:12:31;4.70;;;2.65;;
35646;SDS011;28680;45.642;13.756;2023-03-03T09:15:13;2.90;;;2.30;;
35646;SDS011;28680;45.642;13.756;2023-03-03T09:18:09;5.43;;;2.45;;
35646;SDS011;28680;45.642;13.756;2023-03-03T09:20:54;3.83;;;2.45;;
35646;SDS011;28680;45.642;13.756;2023-03-03T09:32:49;5.03;;;2.53;;
35646;SDS011;28680;45.642;13.756;2023-03-03T09:53:13;3.25;;;2.08;;
35646;SDS011;28680;45.642;13.756;2023-03-03T09:56:06;5.13;;;2.67;;
35646;SDS011;28680;45.642;13.756;2023-03-03T10:04:56;3.63;;;2.50;;
35646;SDS011;28680;45.642;13.756;2023-03-03T10:08:07;4.28;;;2.40;;
35646;SDS011;28680;45.642;13.756;2023-03-03T10:11:56;4.05;;;2.13;;
35646;SDS011;28680;45.642;13.756;2023-03-03T10:20:32;3.25;;;2.20;;
35646;SDS011;28680;45.642;13.756;2023-03-03T10:23:18;3.08;;;2.10;;
35646;SDS011;28680;45.642;13.756;2023-03-03T10:31:12;2.50;;;1.80;;
35646;SDS011;28680;45.642;13.756;2023-03-03T10:40:02;2.67;;;2.08;;
35646;SDS011;28680;45.642;13.756;2023-03-03T10:43:23;3.92;;;2.00;;
35646;SDS011;28680;45.642;13.756;2023-03-03T10:52:50;4.50;;;2.30;;
35646;SDS011;28680;45.642;13.756;2023-03-03T10:58:41;3.25;;;2.20;;
35646;SDS011;28680;45.642;13.756;2023-03-03T11:02:02;3.88;;;2.50;;
35646;SDS011;28680;45.642;13.756;2023-03-03T11:05:08;3.60;;;2.38;;
35646;SDS011;28680;45.642;13.756;2023-03-03T11:07:51;2.90;;;2.10;;
35646;SDS011;28680;45.642;13.756;2023-03-03T11:22:53;2.88;;;2.10;;
35646;SDS011;28680;45.642;13.756;2023-03-03T11:28:40;4.90;;;2.28;;
35646;SDS011;28680;45.642;13.756;2023-03-03T11:31:25;2.40;;;1.65;;
35646;SDS011;28680;45.642;13.756;2023-03-03T11:37:02;2.25;;;1.80;;
35646;SDS011;28680;45.642;13.756;2023-03-03T11:40:00;2.83;;;1.98;;
35646;SDS011;28680;45.642;13.756;2023-03-03T11:45:48;3.08;;;1.88;;
35646;SDS011;28680;45.642;13.756;2023-03-03T11:48:35;2.42;;;1.80;;
35646;SDS011;28680;45.642;13.756;2023-03-03T11:54:03;2.37;;;1.73;;
35646;SDS011;28680;45.642;13.756;2023-03-03T12:02:14;2.63;;;1.35;;
35646;SDS011;28680;45.642;13.756;2023-03-03T12:10:45;1.77;;;1.23;;
35646;SDS011;28680;45.642;13.756;2023-03-03T12:16:11;4.47;;;1.50;;
35646;SDS011;28680;45.642;13.756;2023-03-03T12:19:01;1.88;;;1.52;;
35646;SDS011;28680;45.642;13.756;2023-03-03T12:28:40;3.25;;;1.42;;
35646;SDS011;28680;45.642;13.756;2023-03-03T12:34:00;2.97;;;1.80;;
35646;SDS011;28680;45.642;13.756;2023-03-03T12:44:58;2.03;;;1.70;;
35646;SDS011;28680;45.642;13.756;2023-03-03T12:47:54;2.53;;;1.63;;
35646;SDS011;28680;45.642;13.756;2023-03-03T12:50:33;2.60;;;1.67;;
35646;SDS011;28680;45.642;13.756;2023-03-03T12:53:29;2.60;;;1.50;;
35646;SDS011;28680;45.642;13.756;2023-03-03T12:56:13;2.05;;;1.83;;
35646;SDS011;28680;45.642;13.756;2023-03-03T12:59:02;1.77;;;1.60;;
35646;SDS011;28680;45.642;13.756;2023-03-03T13:02:32;2.25;;;1.75;;
35646;SDS011;28680;45.642;13.756;2023-03-03T13:05:48;2.88;;;1.40;;
35646;SDS011;28680;45.642;13.756;2023-03-03T13:11:26;3.28;;;1.88;;
35646;SDS011;28680;45.642;13.756;2023-03-03T13:14:23;2.60;;;1.98;;
35646;SDS011;28680;45.642;13.756;2023-03-03T13:17:18;1.90;;;1.60;;
35646;SDS011;28680;45.642;13.756;2023-03-03T13:22:38;1.67;;;1.42;;
35646;SDS011;28680;45.642;13.756;2023-03-03T13:28:09;2.38;;;1.88;;
35646;SDS011;28680;45.642;13.756;2023-03-03T13:30:45;3.25;;;1.90;;
35646;SDS011;28680;45.642;13.756;2023-03-03T13:36:09;2.55;;;2.10;;
35646;SDS011;28680;45.642;13.756;2023-03-03T13:38:45;2.83;;;1.83;;
35646;SDS011;28680;45.642;13.756;2023-03-03T13:44:14;2.50;;;1.70;;
35646;SDS011;28680;45.642;13.756;2023-03-03T14:01:22;2.85;;;1.85;;
35646;SDS011;28680;45.642;13.756;2023-03-03T14:05:03;3.50;;;2.10;;
35646;SDS011;28680;45.642;13.756;2023-03-03T14:13:31;4.30;;;2.63;;
35646;SDS011;28680;45.642;13.756;2023-03-03T14:19:15;3.65;;;2.33;;
35646;SDS011;28680;45.642;13.756;2023-03-03T14:24:22;3.03;;;2.25;;
35646;SDS011;28680;45.642;13.756;2023-03-03T14:26:54;3.28;;;2.25;;
35646;SDS011;28680;45.642;13.756;2023-03-03T14:31:58;3.38;;;2.13;;
35646;SDS011;28680;45.642;13.756;2023-03-03T14:34:39;4.05;;;2.75;;
35646;SDS011;28680;45.642;13.756;2023-03-03T14:42:52;7.68;;;3.90;;
35646;SDS011;28680;45.642;13.756;2023-03-03T14:48:26;3.23;;;2.37;;
35646;SDS011;28680;45.642;13.756;2023-03-03T14:50:56;6.32;;;4.00;;
35646;SDS011;28680;45.642;13.756;2023-03-03T14:54:00;3.65;;;2.63;;
35646;SDS011;28680;45.642;13.756;2023-03-03T14:56:35;7.45;;;2.88;;
35646;SDS011;28680;45.642;13.756;2023-03-03T14:59:22;4.88;;;3.00;;
35646;SDS011;28680;45.642;13.756;2023-03-03T15:07:58;5.32;;;3.45;;
35646;SDS011;28680;45.642;13.756;2023-03-03T15:10:41;4.53;;;3.38;;
35646;SDS011;28680;45.642;13.756;2023-03-03T15:21:25;4.57;;;3.03;;
35646;SDS011;28680;45.642;13.756;2023-03-03T15:24:12;3.83;;;3.08;;
35646;SDS011;28680;45.642;13.756;2023-03-03T15:27:28;7.45;;;3.35;;
35646;SDS011;28680;45.642;13.756;2023-03-03T15:33:08;4.40;;;3.53;;
35646;SDS011;28680;45.642;13.756;2023-03-03T15:35:55;4.32;;;3.25;;
35646;SDS011;28680;45.642;13.756;2023-03-03T15:44:24;6.20;;;3.88;;
35646;SDS011;28680;45.642;13.756;2023-03-03T15:52:47;6.10;;;4.47;;
35646;SDS011;28680;45.642;13.756;2023-03-03T16:01:32;9.32;;;5.78;;
35646;SDS011;28680;45.642;13.756;2023-03-03T16:04:17;6.50;;;4.82;;
35646;SDS011;28680;45.642;13.756;2023-03-03T16:15:10;12.13;;;5.68;;
35646;SDS011;28680;45.642;13.756;2023-03-03T16:25:47;10.40;;;5.05;;
35646;SDS011;28680;45.642;13.756;2023-03-03T16:32:52;7.28;;;4.78;;
35646;SDS011;28680;45.642;13.756;2023-03-03T16:36:28;9.75;;;5.13;;
35646;SDS011;28680;45.642;13.756;2023-03-03T16:44:53;9.82;;;5.20;;
35646;SDS011;28680;45.642;13.756;2023-03-03T16:50:30;6.60;;;4.78;;
35646;SDS011;28680;45.642;13.756;2023-03-03T16:56:22;10.25;;;5.63;;
35646;SDS011;28680;45.642;13.756;2023-03-03T16:59:02;10.20;;;5.32;;
35646;SDS011;28680;45.642;13.756;2023-03-03T17:02:18;7.03;;;4.88;;
35646;SDS011;28680;45.642;13.756;2023-03-03T17:05:12;12.82;;;5.93;;
35646;SDS011;28680;45.642;13.756;2023-03-03T17:13:58;10.15;;;5.13;;
35646;SDS011;28680;45.642;13.756;2023-03-03T17:16:53;9.25;;;5.47;;
35646;SDS011;28680;45.642;13.756;2023-03-03T17:25:21;9.45;;;4.80;;
35646;SDS011;28680;45.642;13.756;2023-03-03T17:33:40;11.35;;;5.88;;
35646;SDS011;28680;45.642;13.756;2023-03-03T17:42:18;16.15;;;6.47;;
35646;SDS011;28680;45.642;13.756;2023-03-03T17:56:52;14.60;;;6.05;;
35646;SDS011;28680;45.642;13.756;2023-03-03T18:17:14;16.55;;;7.20;;
35646;SDS011;28680;45.642;13.756;2023-03-03T18:22:56;13.13;;;6.55;;
35646;SDS011;28680;45.642;13.756;2023-03-03T18:25:50;13.32;;;6.20;;
35646;SDS011;28680;45.642;13.756;2023-03-03T18:31:23;15.80;;;7.90;;
35646;SDS011;28680;45.642;13.756;2023-03-03T18:33:59;14.25;;;5.93;;
35646;SDS011;28680;45.642;13.756;2023-03-03T18:38:52;14.35;;;5.95;;
35646;SDS011;28680;45.642;13.756;2023-03-03T18:41:30;10.18;;;5.60;;
35646;SDS011;28680;45.642;13.756;2023-03-03T18:44:29;10.35;;;5.65;;
35646;SDS011;28680;45.642;13.756;2023-03-03T18:46:55;11.85;;;5.38;;
35646;SDS011;28680;45.642;13.756;2023-03-03T18:52:29;10.82;;;5.95;;
35646;SDS011;28680;45.642;13.756;2023-03-03T18:54:59;11.80;;;5.50;;
35646;SDS011;28680;45.642;13.756;2023-03-03T18:57:35;11.68;;;5.53;;
35646;SDS011;28680;45.642;13.756;2023-03-03T19:02:52;13.40;;;6.10;;
35646;SDS011;28680;45.642;13.756;2023-03-03T19:05:30;11.77;;;6.15;;
35646;SDS011;28680;45.642;13.756;2023-03-03T19:08:17;10.73;;;6.05;;
35646;SDS011;28680;45.642;13.756;2023-03-03T19:16:57;16.15;;;7.07;;
35646;SDS011;28680;45.642;13.756;2023-03-03T19:20:06;12.32;;;6.50;;
35646;SDS011;28680;45.642;13.756;2023-03-03T19:25:17;12.93;;;6.10;;
35646;SDS011;28680;45.642;13.756;2023-03-03T19:28:37;15.15;;;7.22;;
35646;SDS011;28680;45.642;13.756;2023-03-03T19:36:51;14.70;;;6.68;;
35646;SDS011;28680;45.642;13.756;2023-03-03T19:51:26;17.63;;;8.98;;
35646;SDS011;28680;45.642;13.756;2023-03-03T19:58:27;16.00;;;7.82;;
35646;SDS011;28680;45.642;13.756;2023-03-03T20:13:10;15.57;;;6.55;;
35646;SDS011;28680;45.642;13.756;2023-03-03T20:25:38;13.55;;;6.75;;
35646;SDS011;28680;45.642;13.756;2023-03-03T20:28:41;13.07;;;6.40;;
35646;SDS011;28680;45.642;13.756;2023-03-03T20:48:21;13.85;;;6.50;;
35646;SDS011;28680;45.642;13.756;2023-03-03T21:00:09;12.85;;;6.38;;
35646;SDS011;28680;45.642;13.756;2023-03-03T21:02:46;14.70;;;6.50;;
35646;SDS011;28680;45.642;13.756;2023-03-03T21:06:01;15.45;;;7.00;;
35646;SDS011;28680;45.642;13.756;2023-03-03T21:12:24;15.60;;;7.45;;
35646;SDS011;28680;45.642;13.756;2023-03-03T21:15:00;14.60;;;6.82;;
35646;SDS011;28680;45.642;13.756;2023-03-03T21:17:52;12.95;;;6.88;;
35646;SDS011;28680;45.642;13.756;2023-03-03T21:42:52;16.63;;;8.30;;
35646;SDS011;28680;45.642;13.756;2023-03-03T21:45:32;17.25;;;8.25;;
35646;SDS011;28680;45.642;13.756;2023-03-03T21:51:22;22.15;;;8.95;;
35646;SDS011;28680;45.642;13.756;2023-03-03T21:54:11;17.35;;;8.75;;
35646;SDS011;28680;45.642;13.756;2023-03-03T22:00:16;18.55;;;10.18;;
35646;SDS011;28680;45.642;13.756;2023-03-03T22:20:18;19.55;;;10.02;;
35646;SDS011;28680;45.642;13.756;2023-03-03T22:29:10;19.58;;;9.18;;
35646;SDS011;28680;45.642;13.756;2023-03-03T22:32:01;21.63;;;9.50;;
35646;SDS011;28680;45.642;13.756;2023-03-03T22:34:39;18.58;;;9.68;;
35646;SDS011;28680;45.642;13.756;2023-03-03T22:37:08;17.85;;;9.57;;
35646;SDS011;28680;45.642;13.756;2023-03-03T22:40:42;17.67;;;9.55;;
35646;SDS011;28680;45.642;13.756;2023-03-03T22:43:21;17.77;;;9.70;;
35646;SDS011;28680;45.642;13.756;2023-03-03T22:45:59;18.55;;;9.32;;
35646;SDS011;28680;45.642;13.756;2023-03-03T22:48:25;17.85;;;8.98;;
35646;SDS011;28680;45.642;13.756;2023-03-03T23:00:39;18.60;;;8.93;;
